sensor_id;sensor_type;location;lat;lon;timestamp;P1;durP1;ratioP1;P2;durP2;ratioP2
17214;SDS011;8723;51.502;6.918;2023-11-18T00:02:19;137.30;;;53.38;;
17214;SDS011;8723;51.502;6.918;2023-11-18T00:04:46;132.02;;;51.40;;
17214;SDS011;8723;51.502;6.918;2023-11-18T00:07:13;125.22;;;51.88;;
17214;SDS011;8723;51.502;6.918;2023-11-18T00:09:43;131.63;;;50.80;;
17214;SDS011;8723;51.502;6.918;2023-11-18T00:12:13;124.97;;;49.72;;
17214;SDS011;8723;51.502;6.918;2023-11-18T00:14:40;126.87;;;50.80;;
17214;SDS011;8723;51.502;6.918;2023-11-18T00:17:08;127.25;;;51.47;;
17214;SDS011;8723;51.502;6.918;2023-11-18T00:19:35;124.45;;;52.08;;
17214;SDS011;8723;51.502;6.918;2023-11-18T00:22:01;142.90;;;54.05;;
17214;SDS011;8723;51.502;6.918;2023-11-18T00:24:29;120.35;;;47.28;;
17214;SDS011;8723;51.502;6.918;2023-11-18T00:26:59;120.82;;;47.83;;
17214;SDS011;8723;51.502;6.918;2023-11-18T00:29:32;117.93;;;47.83;;
17214;SDS011;8723;51.502;6.918;2023-11-18T00:31:59;101.10;;;37.38;;
17214;SDS011;8723;51.502;6.918;2023-11-18T00:34:26;134.85;;;52.05;;
17214;SDS011;8723;51.502;6.918;2023-11-18T00:36:54;120.27;;;47.27;;
17214;SDS011;8723;51.502;6.918;2023-11-18T00:39:22;140.25;;;51.90;;
17214;SDS011;8723;51.502;6.918;2023-11-18T00:41:49;122.40;;;47.75;;
17214;SDS011;8723;51.502;6.918;2023-11-18T00:44:15;140.90;;;50.72;;
17214;SDS011;8723;51.502;6.918;2023-11-18T00:46:44;126.23;;;49.93;;
17214;SDS011;8723;51.502;6.918;2023-11-18T00:49:11;146.20;;;54.83;;
17214;SDS011;8723;51.502;6.918;2023-11-18T00:51:38;147.07;;;55.35;;
17214;SDS011;8723;51.502;6.918;2023-11-18T00:54:06;146.37;;;53.30;;
17214;SDS011;8723;51.502;6.918;2023-11-18T00:56:34;131.43;;;48.60;;
17214;SDS011;8723;51.502;6.918;2023-11-18T00:59:01;141.50;;;54.72;;
17214;SDS011;8723;51.502;6.918;2023-11-18T01:01:29;152.60;;;54.22;;
17214;SDS011;8723;51.502;6.918;2023-11-18T01:03:58;153.45;;;57.05;;
17214;SDS011;8723;51.502;6.918;2023-11-18T01:06:27;127.60;;;49.83;;
17214;SDS011;8723;51.502;6.918;2023-11-18T01:08:54;146.35;;;53.28;;
17214;SDS011;8723;51.502;6.918;2023-11-18T01:11:20;141.13;;;51.15;;
17214;SDS011;8723;51.502;6.918;2023-11-18T01:13:48;133.98;;;51.25;;
17214;SDS011;8723;51.502;6.918;2023-11-18T01:16:14;161.77;;;55.35;;
17214;SDS011;8723;51.502;6.918;2023-11-18T01:18:41;163.52;;;58.55;;
17214;SDS011;8723;51.502;6.918;2023-11-18T01:21:10;144.38;;;53.00;;
17214;SDS011;8723;51.502;6.918;2023-11-18T01:23:37;147.68;;;53.58;;
17214;SDS011;8723;51.502;6.918;2023-11-18T01:26:07;162.20;;;57.08;;
17214;SDS011;8723;51.502;6.918;2023-11-18T01:28:34;127.97;;;48.67;;
17214;SDS011;8723;51.502;6.918;2023-11-18T01:31:04;129.32;;;48.58;;
17214;SDS011;8723;51.502;6.918;2023-11-18T01:33:34;139.20;;;53.13;;
17214;SDS011;8723;51.502;6.918;2023-11-18T01:36:02;133.73;;;48.30;;
17214;SDS011;8723;51.502;6.918;2023-11-18T01:38:31;124.65;;;47.97;;
17214;SDS011;8723;51.502;6.918;2023-11-18T01:40:57;128.32;;;48.30;;
17214;SDS011;8723;51.502;6.918;2023-11-18T01:43:25;121.90;;;46.25;;
17214;SDS011;8723;51.502;6.918;2023-11-18T01:45:52;133.75;;;50.33;;
17214;SDS011;8723;51.502;6.918;2023-11-18T01:48:19;121.72;;;48.90;;
17214;SDS011;8723;51.502;6.918;2023-11-18T01:50:47;122.22;;;45.78;;
17214;SDS011;8723;51.502;6.918;2023-11-18T01:53:16;113.07;;;43.85;;
17214;SDS011;8723;51.502;6.918;2023-11-18T01:55:45;118.80;;;46.55;;
17214;SDS011;8723;51.502;6.918;2023-11-18T01:58:12;124.85;;;46.67;;
17214;SDS011;8723;51.502;6.918;2023-11-18T02:00:45;118.10;;;45.65;;
17214;SDS011;8723;51.502;6.918;2023-11-18T02:03:12;118.75;;;46.80;;
17214;SDS011;8723;51.502;6.918;2023-11-18T02:05:39;119.15;;;46.70;;
17214;SDS011;8723;51.502;6.918;2023-11-18T02:08:07;107.70;;;45.00;;
17214;SDS011;8723;51.502;6.918;2023-11-18T02:10:34;130.43;;;50.60;;
17214;SDS011;8723;51.502;6.918;2023-11-18T02:13:07;119.75;;;46.50;;
17214;SDS011;8723;51.502;6.918;2023-11-18T02:15:38;134.95;;;50.20;;
17214;SDS011;8723;51.502;6.918;2023-11-18T02:18:07;117.22;;;48.30;;
17214;SDS011;8723;51.502;6.918;2023-11-18T02:20:35;126.20;;;47.65;;
17214;SDS011;8723;51.502;6.918;2023-11-18T02:23:03;115.80;;;45.50;;
17214;SDS011;8723;51.502;6.918;2023-11-18T02:25:32;104.83;;;43.63;;
17214;SDS011;8723;51.502;6.918;2023-11-18T02:28:01;116.18;;;44.95;;
17214;SDS011;8723;51.502;6.918;2023-11-18T02:30:28;108.82;;;45.28;;
17214;SDS011;8723;51.502;6.918;2023-11-18T02:32:58;115.43;;;47.40;;
17214;SDS011;8723;51.502;6.918;2023-11-18T02:35:30;122.75;;;46.38;;
17214;SDS011;8723;51.502;6.918;2023-11-18T02:38:02;113.63;;;44.80;;
17214;SDS011;8723;51.502;6.918;2023-11-18T02:40:32;127.13;;;47.63;;
17214;SDS011;8723;51.502;6.918;2023-11-18T02:43:04;126.75;;;48.20;;
17214;SDS011;8723;51.502;6.918;2023-11-18T02:45:35;111.43;;;45.70;;
17214;SDS011;8723;51.502;6.918;2023-11-18T02:48:05;117.20;;;47.92;;
17214;SDS011;8723;51.502;6.918;2023-11-18T02:50:35;113.00;;;49.08;;
17214;SDS011;8723;51.502;6.918;2023-11-18T02:53:07;105.13;;;44.67;;
17214;SDS011;8723;51.502;6.918;2023-11-18T02:55:37;98.60;;;42.00;;
17214;SDS011;8723;51.502;6.918;2023-11-18T02:58:10;104.45;;;42.58;;
17214;SDS011;8723;51.502;6.918;2023-11-18T03:00:39;110.78;;;46.00;;
17214;SDS011;8723;51.502;6.918;2023-11-18T03:03:10;117.22;;;45.15;;
17214;SDS011;8723;51.502;6.918;2023-11-18T03:05:40;112.13;;;44.45;;
17214;SDS011;8723;51.502;6.918;2023-11-18T03:08:09;114.03;;;46.60;;
17214;SDS011;8723;51.502;6.918;2023-11-18T03:10:37;105.13;;;42.17;;
17214;SDS011;8723;51.502;6.918;2023-11-18T03:13:10;121.50;;;48.42;;
17214;SDS011;8723;51.502;6.918;2023-11-18T03:15:38;124.72;;;49.55;;
17214;SDS011;8723;51.502;6.918;2023-11-18T03:18:08;108.95;;;45.47;;
17214;SDS011;8723;51.502;6.918;2023-11-18T03:20:38;97.22;;;42.35;;
17214;SDS011;8723;51.502;6.918;2023-11-18T03:23:07;99.00;;;43.92;;
17214;SDS011;8723;51.502;6.918;2023-11-18T03:25:36;94.88;;;39.35;;
17214;SDS011;8723;51.502;6.918;2023-11-18T03:28:04;98.28;;;40.97;;
17214;SDS011;8723;51.502;6.918;2023-11-18T03:30:36;100.50;;;40.90;;
17214;SDS011;8723;51.502;6.918;2023-11-18T03:33:06;106.03;;;43.83;;
17214;SDS011;8723;51.502;6.918;2023-11-18T03:35:36;102.50;;;42.53;;
17214;SDS011;8723;51.502;6.918;2023-11-18T03:38:03;92.82;;;39.78;;
17214;SDS011;8723;51.502;6.918;2023-11-18T03:40:30;101.82;;;43.45;;
17214;SDS011;8723;51.502;6.918;2023-11-18T03:43:00;110.45;;;44.40;;
17214;SDS011;8723;51.502;6.918;2023-11-18T03:45:28;100.78;;;41.97;;
17214;SDS011;8723;51.502;6.918;2023-11-18T03:47:56;91.30;;;38.75;;
17214;SDS011;8723;51.502;6.918;2023-11-18T03:50:24;87.07;;;38.05;;
17214;SDS011;8723;51.502;6.918;2023-11-18T03:52:51;105.43;;;44.15;;
17214;SDS011;8723;51.502;6.918;2023-11-18T03:55:17;94.20;;;39.45;;
17214;SDS011;8723;51.502;6.918;2023-11-18T03:57:44;101.32;;;41.92;;
17214;SDS011;8723;51.502;6.918;2023-11-18T04:00:12;90.80;;;41.88;;
17214;SDS011;8723;51.502;6.918;2023-11-18T04:02:42;92.65;;;40.97;;
17214;SDS011;8723;51.502;6.918;2023-11-18T04:05:14;111.72;;;44.55;;
17214;SDS011;8723;51.502;6.918;2023-11-18T04:07:42;93.55;;;39.85;;
17214;SDS011;8723;51.502;6.918;2023-11-18T04:10:12;102.70;;;41.77;;
17214;SDS011;8723;51.502;6.918;2023-11-18T04:12:40;109.47;;;42.97;;
17214;SDS011;8723;51.502;6.918;2023-11-18T04:15:12;112.88;;;44.50;;
17214;SDS011;8723;51.502;6.918;2023-11-18T04:17:39;120.15;;;47.97;;
17214;SDS011;8723;51.502;6.918;2023-11-18T04:20:06;116.80;;;45.65;;
17214;SDS011;8723;51.502;6.918;2023-11-18T04:22:38;132.00;;;49.47;;
17214;SDS011;8723;51.502;6.918;2023-11-18T04:25:07;110.10;;;44.33;;
17214;SDS011;8723;51.502;6.918;2023-11-18T04:27:34;114.70;;;44.38;;
17214;SDS011;8723;51.502;6.918;2023-11-18T04:30:01;126.55;;;49.65;;
17214;SDS011;8723;51.502;6.918;2023-11-18T04:32:28;118.93;;;46.75;;
17214;SDS011;8723;51.502;6.918;2023-11-18T04:34:58;119.63;;;46.50;;
17214;SDS011;8723;51.502;6.918;2023-11-18T04:37:31;114.22;;;44.35;;
17214;SDS011;8723;51.502;6.918;2023-11-18T04:40:00;116.30;;;46.08;;
17214;SDS011;8723;51.502;6.918;2023-11-18T04:42:27;109.25;;;43.25;;
17214;SDS011;8723;51.502;6.918;2023-11-18T04:44:54;102.65;;;40.38;;
17214;SDS011;8723;51.502;6.918;2023-11-18T04:47:21;107.28;;;42.03;;
17214;SDS011;8723;51.502;6.918;2023-11-18T04:49:50;100.05;;;39.92;;
17214;SDS011;8723;51.502;6.918;2023-11-18T04:52:17;129.40;;;49.00;;
17214;SDS011;8723;51.502;6.918;2023-11-18T04:54:44;130.98;;;47.50;;
17214;SDS011;8723;51.502;6.918;2023-11-18T04:57:14;119.32;;;45.38;;
17214;SDS011;8723;51.502;6.918;2023-11-18T04:59:41;122.53;;;47.45;;
17214;SDS011;8723;51.502;6.918;2023-11-18T05:02:08;138.40;;;51.10;;
17214;SDS011;8723;51.502;6.918;2023-11-18T05:04:35;117.93;;;47.67;;
17214;SDS011;8723;51.502;6.918;2023-11-18T05:07:02;126.50;;;48.87;;
17214;SDS011;8723;51.502;6.918;2023-11-18T05:09:31;131.00;;;48.13;;
17214;SDS011;8723;51.502;6.918;2023-11-18T05:11:59;112.95;;;43.58;;
17214;SDS011;8723;51.502;6.918;2023-11-18T05:14:27;106.60;;;42.25;;
17214;SDS011;8723;51.502;6.918;2023-11-18T05:16:54;118.68;;;46.58;;
17214;SDS011;8723;51.502;6.918;2023-11-18T05:19:21;118.63;;;43.13;;
17214;SDS011;8723;51.502;6.918;2023-11-18T05:21:48;109.47;;;42.93;;
17214;SDS011;8723;51.502;6.918;2023-11-18T05:24:15;124.75;;;48.13;;
17214;SDS011;8723;51.502;6.918;2023-11-18T05:26:42;122.55;;;48.50;;
17214;SDS011;8723;51.502;6.918;2023-11-18T05:29:09;122.57;;;47.10;;
17214;SDS011;8723;51.502;6.918;2023-11-18T05:31:42;116.18;;;45.42;;
17214;SDS011;8723;51.502;6.918;2023-11-18T05:34:10;129.77;;;48.50;;
17214;SDS011;8723;51.502;6.918;2023-11-18T05:36:37;102.07;;;40.17;;
17214;SDS011;8723;51.502;6.918;2023-11-18T05:39:05;104.20;;;42.97;;
17214;SDS011;8723;51.502;6.918;2023-11-18T05:41:34;127.25;;;46.78;;
17214;SDS011;8723;51.502;6.918;2023-11-18T05:44:04;126.20;;;47.93;;
17214;SDS011;8723;51.502;6.918;2023-11-18T05:46:33;133.98;;;50.45;;
17214;SDS011;8723;51.502;6.918;2023-11-18T05:49:03;122.28;;;45.90;;
17214;SDS011;8723;51.502;6.918;2023-11-18T05:51:33;139.45;;;52.75;;
17214;SDS011;8723;51.502;6.918;2023-11-18T05:54:00;125.70;;;48.50;;
17214;SDS011;8723;51.502;6.918;2023-11-18T05:56:26;114.15;;;45.78;;
17214;SDS011;8723;51.502;6.918;2023-11-18T05:58:52;115.53;;;45.07;;
17214;SDS011;8723;51.502;6.918;2023-11-18T06:01:19;116.20;;;43.90;;
17214;SDS011;8723;51.502;6.918;2023-11-18T06:03:46;117.00;;;46.78;;
17214;SDS011;8723;51.502;6.918;2023-11-18T06:06:15;136.50;;;52.47;;
17214;SDS011;8723;51.502;6.918;2023-11-18T06:08:42;119.80;;;47.70;;
17214;SDS011;8723;51.502;6.918;2023-11-18T06:11:09;107.20;;;46.78;;
17214;SDS011;8723;51.502;6.918;2023-11-18T06:13:39;118.90;;;50.17;;
17214;SDS011;8723;51.502;6.918;2023-11-18T06:16:09;148.32;;;55.50;;
17214;SDS011;8723;51.502;6.918;2023-11-18T06:18:39;113.78;;;45.67;;
17214;SDS011;8723;51.502;6.918;2023-11-18T06:21:07;118.40;;;48.10;;
17214;SDS011;8723;51.502;6.918;2023-11-18T06:23:35;120.97;;;46.67;;
17214;SDS011;8723;51.502;6.918;2023-11-18T06:26:02;119.43;;;45.92;;
17214;SDS011;8723;51.502;6.918;2023-11-18T06:28:29;112.80;;;45.35;;
17214;SDS011;8723;51.502;6.918;2023-11-18T06:30:57;121.40;;;48.40;;
17214;SDS011;8723;51.502;6.918;2023-11-18T06:33:24;116.87;;;45.43;;
17214;SDS011;8723;51.502;6.918;2023-11-18T06:35:52;109.63;;;44.42;;
17214;SDS011;8723;51.502;6.918;2023-11-18T06:38:21;118.50;;;45.75;;
17214;SDS011;8723;51.502;6.918;2023-11-18T06:40:49;117.22;;;46.22;;
17214;SDS011;8723;51.502;6.918;2023-11-18T06:43:17;120.22;;;46.83;;
17214;SDS011;8723;51.502;6.918;2023-11-18T06:45:45;115.65;;;45.28;;
17214;SDS011;8723;51.502;6.918;2023-11-18T06:48:13;114.28;;;45.67;;
17214;SDS011;8723;51.502;6.918;2023-11-18T06:50:45;110.93;;;44.78;;
17214;SDS011;8723;51.502;6.918;2023-11-18T06:53:12;111.72;;;45.17;;
17214;SDS011;8723;51.502;6.918;2023-11-18T06:55:40;121.28;;;46.30;;
17214;SDS011;8723;51.502;6.918;2023-11-18T06:58:09;109.15;;;43.60;;
17214;SDS011;8723;51.502;6.918;2023-11-18T07:00:36;101.23;;;41.20;;
17214;SDS011;8723;51.502;6.918;2023-11-18T07:03:03;111.75;;;45.22;;
17214;SDS011;8723;51.502;6.918;2023-11-18T07:05:31;120.20;;;46.63;;
17214;SDS011;8723;51.502;6.918;2023-11-18T07:07:57;99.13;;;40.03;;
17214;SDS011;8723;51.502;6.918;2023-11-18T07:10:24;100.70;;;39.47;;
17214;SDS011;8723;51.502;6.918;2023-11-18T07:12:52;111.73;;;44.50;;
17214;SDS011;8723;51.502;6.918;2023-11-18T07:15:21;98.20;;;40.42;;
17214;SDS011;8723;51.502;6.918;2023-11-18T07:17:48;110.07;;;43.93;;
17214;SDS011;8723;51.502;6.918;2023-11-18T07:20:16;103.10;;;42.17;;
17214;SDS011;8723;51.502;6.918;2023-11-18T07:22:43;115.55;;;46.47;;
17214;SDS011;8723;51.502;6.918;2023-11-18T07:25:10;91.47;;;38.65;;
17214;SDS011;8723;51.502;6.918;2023-11-18T07:27:37;87.95;;;37.70;;
17214;SDS011;8723;51.502;6.918;2023-11-18T07:30:05;93.50;;;39.73;;
17214;SDS011;8723;51.502;6.918;2023-11-18T07:32:37;83.80;;;36.13;;
17214;SDS011;8723;51.502;6.918;2023-11-18T07:35:05;90.70;;;37.95;;
17214;SDS011;8723;51.502;6.918;2023-11-18T07:37:34;99.85;;;41.25;;
17214;SDS011;8723;51.502;6.918;2023-11-18T07:40:02;86.03;;;36.47;;
17214;SDS011;8723;51.502;6.918;2023-11-18T07:42:30;78.82;;;32.35;;
17214;SDS011;8723;51.502;6.918;2023-11-18T07:44:59;70.05;;;31.85;;
17214;SDS011;8723;51.502;6.918;2023-11-18T07:47:28;66.90;;;29.80;;
17214;SDS011;8723;51.502;6.918;2023-11-18T07:49:57;69.38;;;31.20;;
17214;SDS011;8723;51.502;6.918;2023-11-18T07:52:25;78.70;;;32.10;;
17214;SDS011;8723;51.502;6.918;2023-11-18T07:54:54;65.35;;;30.30;;
17214;SDS011;8723;51.502;6.918;2023-11-18T07:57:21;92.80;;;38.33;;
17214;SDS011;8723;51.502;6.918;2023-11-18T07:59:49;43.35;;;19.98;;
17214;SDS011;8723;51.502;6.918;2023-11-18T08:02:19;65.00;;;29.47;;
17214;SDS011;8723;51.502;6.918;2023-11-18T08:04:46;64.17;;;27.40;;
17214;SDS011;8723;51.502;6.918;2023-11-18T08:07:14;57.87;;;28.30;;
17214;SDS011;8723;51.502;6.918;2023-11-18T08:09:41;64.70;;;29.40;;
17214;SDS011;8723;51.502;6.918;2023-11-18T08:12:08;33.50;;;16.50;;
17214;SDS011;8723;51.502;6.918;2023-11-18T08:14:35;71.50;;;31.92;;
17214;SDS011;8723;51.502;6.918;2023-11-18T08:17:02;61.63;;;28.15;;
17214;SDS011;8723;51.502;6.918;2023-11-18T08:19:30;36.88;;;17.95;;
17214;SDS011;8723;51.502;6.918;2023-11-18T08:21:59;31.95;;;15.80;;
17214;SDS011;8723;51.502;6.918;2023-11-18T08:24:27;31.60;;;16.00;;
17214;SDS011;8723;51.502;6.918;2023-11-18T08:26:55;52.25;;;25.45;;
17214;SDS011;8723;51.502;6.918;2023-11-18T08:29:21;56.75;;;26.85;;
17214;SDS011;8723;51.502;6.918;2023-11-18T08:31:49;39.17;;;19.05;;
17214;SDS011;8723;51.502;6.918;2023-11-18T08:34:16;24.13;;;12.87;;
17214;SDS011;8723;51.502;6.918;2023-11-18T08:36:43;27.95;;;14.82;;
17214;SDS011;8723;51.502;6.918;2023-11-18T08:39:11;32.67;;;16.83;;
17214;SDS011;8723;51.502;6.918;2023-11-18T08:41:42;31.15;;;16.17;;
17214;SDS011;8723;51.502;6.918;2023-11-18T08:44:10;33.03;;;17.87;;
17214;SDS011;8723;51.502;6.918;2023-11-18T08:46:38;32.03;;;17.42;;
17214;SDS011;8723;51.502;6.918;2023-11-18T08:49:06;29.90;;;15.85;;
17214;SDS011;8723;51.502;6.918;2023-11-18T08:51:36;26.77;;;14.35;;
17214;SDS011;8723;51.502;6.918;2023-11-18T08:54:03;31.10;;;16.75;;
17214;SDS011;8723;51.502;6.918;2023-11-18T08:56:48;31.48;;;17.80;;
17214;SDS011;8723;51.502;6.918;2023-11-18T08:59:17;25.50;;;15.20;;
17214;SDS011;8723;51.502;6.918;2023-11-18T09:01:49;27.67;;;14.63;;
17214;SDS011;8723;51.502;6.918;2023-11-18T09:04:20;26.40;;;15.05;;
17214;SDS011;8723;51.502;6.918;2023-11-18T09:06:48;32.30;;;18.60;;
17214;SDS011;8723;51.502;6.918;2023-11-18T09:09:16;41.97;;;21.63;;
17214;SDS011;8723;51.502;6.918;2023-11-18T09:11:53;37.47;;;20.85;;
17214;SDS011;8723;51.502;6.918;2023-11-18T09:14:21;23.33;;;13.60;;
17214;SDS011;8723;51.502;6.918;2023-11-18T09:16:49;23.52;;;14.27;;
17214;SDS011;8723;51.502;6.918;2023-11-18T09:19:16;30.02;;;17.48;;
17214;SDS011;8723;51.502;6.918;2023-11-18T09:21:46;28.40;;;16.58;;
17214;SDS011;8723;51.502;6.918;2023-11-18T09:24:13;36.27;;;19.60;;
17214;SDS011;8723;51.502;6.918;2023-11-18T09:26:44;26.20;;;15.35;;
17214;SDS011;8723;51.502;6.918;2023-11-18T09:29:16;41.33;;;20.70;;
17214;SDS011;8723;51.502;6.918;2023-11-18T09:31:43;26.45;;;16.65;;
17214;SDS011;8723;51.502;6.918;2023-11-18T09:34:13;27.42;;;16.35;;
17214;SDS011;8723;51.502;6.918;2023-11-18T09:36:42;26.40;;;16.98;;
17214;SDS011;8723;51.502;6.918;2023-11-18T09:39:09;31.23;;;17.97;;
17214;SDS011;8723;51.502;6.918;2023-11-18T09:41:41;19.25;;;13.18;;
17214;SDS011;8723;51.502;6.918;2023-11-18T09:44:08;20.48;;;13.55;;
17214;SDS011;8723;51.502;6.918;2023-11-18T09:46:39;27.40;;;16.17;;
17214;SDS011;8723;51.502;6.918;2023-11-18T09:49:21;17.63;;;11.80;;
17214;SDS011;8723;51.502;6.918;2023-11-18T09:51:58;23.50;;;13.63;;
17214;SDS011;8723;51.502;6.918;2023-11-18T09:54:30;27.30;;;17.30;;
17214;SDS011;8723;51.502;6.918;2023-11-18T09:57:03;20.23;;;13.63;;
17214;SDS011;8723;51.502;6.918;2023-11-18T09:59:37;17.05;;;11.75;;
17214;SDS011;8723;51.502;6.918;2023-11-18T10:02:11;16.00;;;12.23;;
17214;SDS011;8723;51.502;6.918;2023-11-18T10:04:39;18.52;;;12.32;;
17214;SDS011;8723;51.502;6.918;2023-11-18T10:07:06;16.92;;;11.07;;
17214;SDS011;8723;51.502;6.918;2023-11-18T10:09:35;17.48;;;12.20;;
17214;SDS011;8723;51.502;6.918;2023-11-18T10:12:05;14.73;;;11.03;;
17214;SDS011;8723;51.502;6.918;2023-11-18T10:14:33;18.87;;;12.27;;
17214;SDS011;8723;51.502;6.918;2023-11-18T10:17:03;13.88;;;10.27;;
17214;SDS011;8723;51.502;6.918;2023-11-18T10:22:24;14.73;;;10.43;;
17214;SDS011;8723;51.502;6.918;2023-11-18T10:24:51;15.00;;;11.15;;
17214;SDS011;8723;51.502;6.918;2023-11-18T10:27:20;18.08;;;12.27;;
17214;SDS011;8723;51.502;6.918;2023-11-18T10:29:50;16.70;;;11.27;;
17214;SDS011;8723;51.502;6.918;2023-11-18T10:32:21;19.95;;;12.90;;
17214;SDS011;8723;51.502;6.918;2023-11-18T10:34:53;20.05;;;14.23;;
17214;SDS011;8723;51.502;6.918;2023-11-18T10:37:21;20.47;;;14.00;;
17214;SDS011;8723;51.502;6.918;2023-11-18T10:39:49;21.13;;;14.40;;
17214;SDS011;8723;51.502;6.918;2023-11-18T10:42:16;19.63;;;13.25;;
17214;SDS011;8723;51.502;6.918;2023-11-18T10:47:32;16.67;;;12.32;;
17214;SDS011;8723;51.502;6.918;2023-11-18T10:50:01;15.65;;;12.07;;
17214;SDS011;8723;51.502;6.918;2023-11-18T10:52:28;16.60;;;12.52;;
17214;SDS011;8723;51.502;6.918;2023-11-18T10:55:00;15.10;;;11.50;;
17214;SDS011;8723;51.502;6.918;2023-11-18T10:57:36;14.77;;;12.27;;
17214;SDS011;8723;51.502;6.918;2023-11-18T11:00:04;17.80;;;12.73;;
17214;SDS011;8723;51.502;6.918;2023-11-18T11:02:38;14.13;;;11.75;;
17214;SDS011;8723;51.502;6.918;2023-11-18T11:05:08;14.15;;;10.15;;
17214;SDS011;8723;51.502;6.918;2023-11-18T11:07:40;18.33;;;11.87;;
17214;SDS011;8723;51.502;6.918;2023-11-18T11:10:08;17.52;;;13.23;;
17214;SDS011;8723;51.502;6.918;2023-11-18T11:12:35;18.92;;;13.25;;
17214;SDS011;8723;51.502;6.918;2023-11-18T11:15:17;13.35;;;11.50;;
17214;SDS011;8723;51.502;6.918;2023-11-18T11:17:49;14.90;;;11.98;;
17214;SDS011;8723;51.502;6.918;2023-11-18T11:20:22;13.70;;;10.70;;
17214;SDS011;8723;51.502;6.918;2023-11-18T11:22:56;13.85;;;11.30;;
17214;SDS011;8723;51.502;6.918;2023-11-18T11:25:35;13.77;;;10.30;;
17214;SDS011;8723;51.502;6.918;2023-11-18T11:28:10;14.75;;;11.57;;
17214;SDS011;8723;51.502;6.918;2023-11-18T11:30:40;12.75;;;10.77;;
17214;SDS011;8723;51.502;6.918;2023-11-18T11:33:12;12.63;;;10.13;;
17214;SDS011;8723;51.502;6.918;2023-11-18T11:35:48;12.70;;;10.30;;
17214;SDS011;8723;51.502;6.918;2023-11-18T11:38:22;11.68;;;9.65;;
17214;SDS011;8723;51.502;6.918;2023-11-18T11:40:51;12.23;;;9.87;;
17214;SDS011;8723;51.502;6.918;2023-11-18T11:43:20;14.23;;;10.80;;
17214;SDS011;8723;51.502;6.918;2023-11-18T11:45:48;14.93;;;10.90;;
17214;SDS011;8723;51.502;6.918;2023-11-18T11:48:17;15.80;;;11.23;;
17214;SDS011;8723;51.502;6.918;2023-11-18T11:51:05;10.55;;;8.43;;
17214;SDS011;8723;51.502;6.918;2023-11-18T11:53:40;11.85;;;10.27;;
17214;SDS011;8723;51.502;6.918;2023-11-18T11:56:12;13.68;;;10.98;;
17214;SDS011;8723;51.502;6.918;2023-11-18T11:58:44;12.80;;;10.20;;
17214;SDS011;8723;51.502;6.918;2023-11-18T12:01:21;11.30;;;9.00;;
17214;SDS011;8723;51.502;6.918;2023-11-18T12:03:54;10.90;;;8.73;;
17214;SDS011;8723;51.502;6.918;2023-11-18T12:06:24;9.45;;;8.02;;
17214;SDS011;8723;51.502;6.918;2023-11-18T12:08:53;11.43;;;10.00;;
17214;SDS011;8723;51.502;6.918;2023-11-18T12:11:20;13.25;;;10.15;;
17214;SDS011;8723;51.502;6.918;2023-11-18T12:14:03;11.57;;;9.63;;
17214;SDS011;8723;51.502;6.918;2023-11-18T12:19:39;11.73;;;9.32;;
17214;SDS011;8723;51.502;6.918;2023-11-18T12:22:14;12.65;;;9.90;;
17214;SDS011;8723;51.502;6.918;2023-11-18T12:28:10;13.93;;;9.37;;
17214;SDS011;8723;51.502;6.918;2023-11-18T12:30:41;13.88;;;9.35;;
17214;SDS011;8723;51.502;6.918;2023-11-18T12:33:20;11.38;;;8.93;;
17214;SDS011;8723;51.502;6.918;2023-11-18T12:42:05;10.30;;;8.57;;
17214;SDS011;8723;51.502;6.918;2023-11-18T12:44:37;12.40;;;8.80;;
17214;SDS011;8723;51.502;6.918;2023-11-18T12:47:11;13.95;;;8.85;;
17214;SDS011;8723;51.502;6.918;2023-11-18T12:49:43;9.82;;;7.68;;
17214;SDS011;8723;51.502;6.918;2023-11-18T12:52:15;10.48;;;8.07;;
17214;SDS011;8723;51.502;6.918;2023-11-18T12:54:45;9.02;;;7.60;;
17214;SDS011;8723;51.502;6.918;2023-11-18T12:57:15;10.02;;;8.60;;
17214;SDS011;8723;51.502;6.918;2023-11-18T12:59:42;14.40;;;8.68;;
17214;SDS011;8723;51.502;6.918;2023-11-18T13:02:11;12.18;;;9.13;;
17214;SDS011;8723;51.502;6.918;2023-11-18T13:04:44;9.77;;;7.82;;
17214;SDS011;8723;51.502;6.918;2023-11-18T13:07:12;12.25;;;8.90;;
17214;SDS011;8723;51.502;6.918;2023-11-18T13:09:39;10.65;;;8.20;;
17214;SDS011;8723;51.502;6.918;2023-11-18T13:12:10;11.68;;;8.30;;
17214;SDS011;8723;51.502;6.918;2023-11-18T13:14:40;13.98;;;9.30;;
17214;SDS011;8723;51.502;6.918;2023-11-18T13:17:09;12.93;;;8.35;;
17214;SDS011;8723;51.502;6.918;2023-11-18T13:19:37;8.20;;;6.65;;
17214;SDS011;8723;51.502;6.918;2023-11-18T13:22:05;10.70;;;8.00;;
17214;SDS011;8723;51.502;6.918;2023-11-18T13:24:34;9.63;;;8.02;;
17214;SDS011;8723;51.502;6.918;2023-11-18T13:27:01;10.70;;;9.15;;
17214;SDS011;8723;51.502;6.918;2023-11-18T13:29:31;10.38;;;8.20;;
17214;SDS011;8723;51.502;6.918;2023-11-18T13:31:59;9.02;;;7.50;;
17214;SDS011;8723;51.502;6.918;2023-11-18T13:34:29;11.10;;;7.07;;
17214;SDS011;8723;51.502;6.918;2023-11-18T13:36:58;8.30;;;6.70;;
17214;SDS011;8723;51.502;6.918;2023-11-18T13:39:25;7.32;;;5.75;;
17214;SDS011;8723;51.502;6.918;2023-11-18T13:41:53;6.33;;;5.67;;
17214;SDS011;8723;51.502;6.918;2023-11-18T13:44:33;10.20;;;6.23;;
17214;SDS011;8723;51.502;6.918;2023-11-18T13:47:04;7.63;;;5.30;;
17214;SDS011;8723;51.502;6.918;2023-11-18T13:49:31;8.10;;;5.33;;
17214;SDS011;8723;51.502;6.918;2023-11-18T13:51:59;5.53;;;4.75;;
17214;SDS011;8723;51.502;6.918;2023-11-18T13:54:27;7.05;;;5.55;;
17214;SDS011;8723;51.502;6.918;2023-11-18T13:56:54;6.65;;;5.55;;
17214;SDS011;8723;51.502;6.918;2023-11-18T13:59:23;7.25;;;4.88;;
17214;SDS011;8723;51.502;6.918;2023-11-18T14:01:52;5.57;;;4.57;;
17214;SDS011;8723;51.502;6.918;2023-11-18T14:04:22;6.80;;;5.25;;
17214;SDS011;8723;51.502;6.918;2023-11-18T14:06:50;5.10;;;4.43;;
17214;SDS011;8723;51.502;6.918;2023-11-18T14:09:18;6.13;;;4.70;;
17214;SDS011;8723;51.502;6.918;2023-11-18T14:11:46;7.03;;;5.13;;
17214;SDS011;8723;51.502;6.918;2023-11-18T14:14:13;5.05;;;4.32;;
17214;SDS011;8723;51.502;6.918;2023-11-18T14:16:40;5.63;;;4.10;;
17214;SDS011;8723;51.502;6.918;2023-11-18T14:19:08;4.85;;;4.03;;
17214;SDS011;8723;51.502;6.918;2023-11-18T14:21:36;5.13;;;3.65;;
17214;SDS011;8723;51.502;6.918;2023-11-18T14:24:03;6.32;;;4.00;;
17214;SDS011;8723;51.502;6.918;2023-11-18T14:26:30;4.97;;;3.80;;
17214;SDS011;8723;51.502;6.918;2023-11-18T14:28:57;5.15;;;3.70;;
17214;SDS011;8723;51.502;6.918;2023-11-18T14:31:24;5.13;;;3.60;;
17214;SDS011;8723;51.502;6.918;2023-11-18T14:33:51;6.97;;;4.03;;
17214;SDS011;8723;51.502;6.918;2023-11-18T14:36:20;4.00;;;3.43;;
17214;SDS011;8723;51.502;6.918;2023-11-18T14:38:47;5.55;;;3.20;;
17214;SDS011;8723;51.502;6.918;2023-11-18T14:41:14;6.88;;;3.50;;
17214;SDS011;8723;51.502;6.918;2023-11-18T14:43:41;4.30;;;3.38;;
17214;SDS011;8723;51.502;6.918;2023-11-18T14:46:07;4.25;;;3.63;;
17214;SDS011;8723;51.502;6.918;2023-11-18T14:48:34;7.78;;;4.07;;
17214;SDS011;8723;51.502;6.918;2023-11-18T14:51:01;3.97;;;3.50;;
17214;SDS011;8723;51.502;6.918;2023-11-18T14:53:31;6.05;;;3.67;;
17214;SDS011;8723;51.502;6.918;2023-11-18T14:55:59;4.80;;;3.80;;
17214;SDS011;8723;51.502;6.918;2023-11-18T14:58:25;4.95;;;4.03;;
17214;SDS011;8723;51.502;6.918;2023-11-18T15:00:52;5.85;;;4.00;;
17214;SDS011;8723;51.502;6.918;2023-11-18T15:03:21;6.70;;;4.03;;